Time;durP1;ratioP1;P1;durP2;ratioP2;P2;SDS_P1;SDS_P2;PMS_P1;PMS_P2;Temp;Humidity;BMP_temperature;BMP_pressure;BME280_temperature;BME280_humidity;BME280_pressure;Samples;Min_cycle;Max_cycle;Signal;HPM_P1;HPM_P2
2023/08/28 00:01:58;;;;;;;5.95;2.80;;;;;;;;;;6192811;23;20396;-87
2023/08/28 00:04:34;;;;;;;3.53;2.60;;;;;;;;;;6191974;23;20058;-87
2023/08/28 00:07:00;;;;;;;4.30;2.50;;;;;;;;;;6191609;23;20021;-86
2023/08/28 00:09:26;;;;;;;3.28;2.50;;;;;;;;;;6191589;23;20449;-86
2023/08/28 00:11:56;;;;;;;4.88;2.50;;;;;;;;;;6191085;23;20017;-86
2023/08/28 00:14:26;;;;;;;4.35;2.40;;;;;;;;;;6190879;23;20472;-86
2023/08/28 00:16:53;;;;;;;4.78;2.85;;;;;;;;;;6191744;23;20025;-87
2023/08/28 00:19:24;;;;;;;4.57;2.50;;;;;;;;;;6192372;23;20120;-87
2023/08/28 00:21:58;;;;;;;3.40;2.30;;;;;;;;;;6191699;23;20075;-87
2023/08/28 00:24:30;;;;;;;4.38;2.47;;;;;;;;;;6190935;23;20066;-87
2023/08/28 00:26:59;;;;;;;4.95;2.53;;;;;;;;;;6190806;23;20057;-87
2023/08/28 00:29:27;;;;;;;4.43;2.30;;;;;;;;;;6190526;23;20028;-88
2023/08/28 00:31:56;;;;;;;7.47;2.70;;;;;;;;;;6215673;23;20091;-87
2023/08/28 00:34:28;;;;;;;5.25;2.90;;;;;;;;;;6215207;23;20017;-87
2023/08/28 00:36:59;;;;;;;5.00;2.95;;;;;;;;;;6189252;23;20016;-88
2023/08/28 00:39:31;;;;;;;4.38;2.60;;;;;;;;;;6214591;23;20020;-87
2023/08/28 00:42:04;;;;;;;4.65;2.60;;;;;;;;;;6188631;23;20063;-87
2023/08/28 00:44:51;;;;;;;3.88;3.08;;;;;;;;;;6216650;23;20028;-87
2023/08/28 00:47:40;;;;;;;3.78;2.83;;;;;;;;;;6189632;23;20104;-86
2023/08/28 00:50:07;;;;;;;3.63;2.70;;;;;;;;;;6214118;23;20016;-87
2023/08/28 00:52:33;;;;;;;6.43;2.85;;;;;;;;;;6189529;23;20044;-87
2023/08/28 00:55:09;;;;;;;4.28;2.97;;;;;;;;;;6215122;23;20016;-87
2023/08/28 00:57:38;;;;;;;4.60;2.80;;;;;;;;;;6213844;23;20025;-87
2023/08/28 01:00:10;;;;;;;4.63;3.05;;;;;;;;;;6191689;23;20020;-86
2023/08/28 01:02:37;;;;;;;6.18;2.83;;;;;;;;;;6217727;23;20023;-87
2023/08/28 01:05:05;;;;;;;4.38;2.50;;;;;;;;;;6192561;23;20032;-87
2023/08/28 01:07:35;;;;;;;3.63;2.50;;;;;;;;;;6217602;23;20131;-87
2023/08/28 01:10:06;;;;;;;3.90;2.50;;;;;;;;;;6192484;23;20017;-86
2023/08/28 01:12:38;;;;;;;4.65;2.60;;;;;;;;;;6191952;23;20051;-86
2023/08/28 01:15:05;;;;;;;4.15;3.00;;;;;;;;;;6217771;23;20024;-87
2023/08/28 01:17:31;;;;;;;4.65;2.70;;;;;;;;;;6191866;23;20444;-86
2023/08/28 01:19:58;;;;;;;5.20;2.83;;;;;;;;;;6192442;23;20017;-87
2023/08/28 01:22:27;;;;;;;4.53;2.65;;;;;;;;;;6202481;23;20016;-86
2023/08/28 01:24:56;;;;;;;5.20;2.97;;;;;;;;;;6197572;23;20471;-87
2023/08/28 01:27:23;;;;;;;4.30;2.90;;;;;;;;;;6217996;23;20023;-86
2023/08/28 01:30:18;;;;;;;4.68;2.75;;;;;;;;;;6216573;23;20028;-86
2023/08/28 01:32:46;;;;;;;3.00;2.45;;;;;;;;;;6172629;23;20103;-86
2023/08/28 01:35:17;;;;;;;5.28;3.20;;;;;;;;;;6191642;23;20012;-86
2023/08/28 01:37:58;;;;;;;3.70;2.78;;;;;;;;;;6191324;23;20027;-87
2023/08/28 01:40:33;;;;;;;4.38;2.72;;;;;;;;;;6217522;23;20025;-87
2023/08/28 01:43:03;;;;;;;5.97;2.80;;;;;;;;;;6216625;23;20013;-87
2023/08/28 01:45:32;;;;;;;4.60;2.90;;;;;;;;;;6192165;23;20020;-86
2023/08/28 01:47:59;;;;;;;5.78;2.97;;;;;;;;;;6191353;23;20024;-89
2023/08/28 01:50:25;;;;;;;5.30;2.67;;;;;;;;;;6215762;23;20024;-86
2023/08/28 01:52:51;;;;;;;4.38;2.40;;;;;;;;;;6215984;23;20096;-90
2023/08/28 01:55:23;;;;;;;3.47;2.30;;;;;;;;;;6216158;23;20016;-89
2023/08/28 01:57:49;;;;;;;3.58;2.13;;;;;;;;;;6216174;23;20067;-88
2023/08/28 02:00:16;;;;;;;3.25;2.30;;;;;;;;;;6217905;23;20487;-88
2023/08/28 02:02:44;;;;;;;3.22;1.90;;;;;;;;;;6216553;23;20017;-87
2023/08/28 02:05:10;;;;;;;2.85;2.05;;;;;;;;;;6216589;23;20019;-87
2023/08/28 02:07:37;;;;;;;4.03;2.40;;;;;;;;;;6190556;23;20012;-87
2023/08/28 02:10:03;;;;;;;4.20;2.20;;;;;;;;;;6191104;23;20082;-86
2023/08/28 02:12:29;;;;;;;3.92;2.05;;;;;;;;;;6190761;23;20466;-86
2023/08/28 02:14:56;;;;;;;5.35;2.20;;;;;;;;;;6191012;23;20020;-87
2023/08/28 02:17:22;;;;;;;4.30;2.35;;;;;;;;;;6216015;23;20112;-87
2023/08/28 02:19:50;;;;;;;5.70;2.20;;;;;;;;;;6216154;23;20083;-87
2023/08/28 02:22:16;;;;;;;2.78;2.05;;;;;;;;;;6191023;23;20056;-86
2023/08/28 02:24:45;;;;;;;4.55;2.33;;;;;;;;;;6191278;23;20466;-86
2023/08/28 02:27:11;;;;;;;2.78;1.85;;;;;;;;;;6215872;23;20063;-87
2023/08/28 02:29:38;;;;;;;2.38;1.85;;;;;;;;;;6216127;23;20048;-86
2023/08/28 02:32:06;;;;;;;4.38;1.92;;;;;;;;;;6215923;23;20017;-86
2023/08/28 02:34:35;;;;;;;4.35;1.70;;;;;;;;;;6215777;23;20013;-86
2023/08/28 02:37:01;;;;;;;3.63;1.92;;;;;;;;;;6190679;23;20019;-87
2023/08/28 02:39:27;;;;;;;2.70;1.90;;;;;;;;;;6216799;23;20484;-86
2023/08/28 02:41:53;;;;;;;2.58;1.80;;;;;;;;;;6217211;23;20016;-87
2023/08/28 02:44:20;;;;;;;3.67;1.90;;;;;;;;;;6191345;23;20454;-87
2023/08/28 02:46:46;;;;;;;2.63;2.05;;;;;;;;;;6216304;23;20099;-86
2023/08/28 02:49:12;;;;;;;1.73;1.63;;;;;;;;;;6216202;23;20463;-86
2023/08/28 02:51:38;;;;;;;3.53;2.00;;;;;;;;;;6216380;23;20458;-86
2023/08/28 02:54:04;;;;;;;2.58;1.90;;;;;;;;;;6191276;23;20055;-86
2023/08/28 02:56:49;;;;;;;2.95;1.75;;;;;;;;;;6191232;23;20059;-87
2023/08/28 02:59:18;;;;;;;3.40;1.80;;;;;;;;;;6216435;23;20088;-87
2023/08/28 03:01:47;;;;;;;4.80;1.80;;;;;;;;;;6190787;23;20019;-87
2023/08/28 03:04:16;;;;;;;7.03;2.20;;;;;;;;;;6190877;23;20099;-86
2023/08/28 03:06:45;;;;;;;4.55;2.10;;;;;;;;;;6215665;23;20099;-86
2023/08/28 03:09:14;;;;;;;3.78;1.95;;;;;;;;;;6191673;23;20095;-86
2023/08/28 03:11:44;;;;;;;2.90;1.67;;;;;;;;;;6215595;23;20039;-86
2023/08/28 03:14:10;;;;;;;2.95;1.90;;;;;;;;;;6191096;23;20028;-87
2023/08/28 03:16:36;;;;;;;2.25;1.70;;;;;;;;;;6191600;23;20039;-86
2023/08/28 03:19:02;;;;;;;2.30;1.50;;;;;;;;;;6190611;23;20017;-86
2023/08/28 03:21:29;;;;;;;2.75;1.80;;;;;;;;;;6190675;23;20016;-86
2023/08/28 03:23:55;;;;;;;3.65;2.08;;;;;;;;;;6222522;23;20043;-86
2023/08/28 03:26:29;;;;;;;3.30;2.20;;;;;;;;;;6225720;23;20021;-87
2023/08/28 03:28:55;;;;;;;2.85;2.30;;;;;;;;;;6217733;23;20024;-86
2023/08/28 03:31:24;;;;;;;4.47;2.30;;;;;;;;;;6190663;23;20059;-86
2023/08/28 03:33:55;;;;;;;3.80;2.42;;;;;;;;;;6192186;23;20020;-86
2023/08/28 03:36:27;;;;;;;4.30;2.53;;;;;;;;;;6192651;23;20013;-86
2023/08/28 03:38:55;;;;;;;3.67;2.60;;;;;;;;;;6216979;23;20012;-86
2023/08/28 03:41:36;;;;;;;5.72;2.50;;;;;;;;;;6192215;23;20027;-86
2023/08/28 03:44:25;;;;;;;4.35;2.60;;;;;;;;;;6216713;23;20098;-86
2023/08/28 03:46:52;;;;;;;6.35;3.10;;;;;;;;;;6191297;23;20091;-86
2023/08/28 03:49:21;;;;;;;4.88;2.80;;;;;;;;;;6214812;23;20025;-86
2023/08/28 03:51:47;;;;;;;5.72;2.85;;;;;;;;;;6190037;23;20136;-86
2023/08/28 03:54:19;;;;;;;4.20;3.00;;;;;;;;;;6215791;23;20034;-86
2023/08/28 03:56:51;;;;;;;5.13;3.15;;;;;;;;;;6214312;23;20016;-86
2023/08/28 03:59:25;;;;;;;6.22;2.97;;;;;;;;;;6190955;23;20021;-86
2023/08/28 04:01:51;;;;;;;5.80;3.00;;;;;;;;;;6190567;23;20024;-86
2023/08/28 04:04:22;;;;;;;4.13;3.03;;;;;;;;;;6215469;23;20313;-86
2023/08/28 04:06:53;;;;;;;8.20;3.20;;;;;;;;;;6189977;23;20103;-86
2023/08/28 04:09:22;;;;;;;3.85;2.83;;;;;;;;;;6191583;23;20448;-86
2023/08/28 04:11:54;;;;;;;3.22;2.90;;;;;;;;;;6191040;23;20019;-86
2023/08/28 04:14:32;;;;;;;3.83;3.05;;;;;;;;;;6217245;23;20044;-86
2023/08/28 04:17:00;;;;;;;3.97;2.80;;;;;;;;;;6190811;23;20569;-87
2023/08/28 04:19:30;;;;;;;5.82;2.97;;;;;;;;;;6192763;23;20012;-86
2023/08/28 04:22:01;;;;;;;3.80;2.85;;;;;;;;;;6216843;23;20012;-86
2023/08/28 04:24:27;;;;;;;4.45;2.90;;;;;;;;;;6189676;23;20017;-86
2023/08/28 04:26:53;;;;;;;4.18;2.95;;;;;;;;;;6217158;23;20035;-87
2023/08/28 04:29:22;;;;;;;4.22;2.92;;;;;;;;;;6192600;23;20075;-87
2023/08/28 04:31:53;;;;;;;3.10;2.80;;;;;;;;;;6190746;23;20016;-90
2023/08/28 04:34:19;;;;;;;4.20;3.03;;;;;;;;;;6215430;23;20059;-87
2023/08/28 04:36:53;;;;;;;6.15;3.15;;;;;;;;;;6214795;23;20102;-89
2023/08/28 04:39:20;;;;;;;3.60;3.00;;;;;;;;;;6190096;23;20016;-89
2023/08/28 04:41:46;;;;;;;3.42;2.90;;;;;;;;;;6214782;23;20322;-89
2023/08/28 04:44:14;;;;;;;4.90;3.00;;;;;;;;;;6214911;23;20023;-88
2023/08/28 04:46:40;;;;;;;3.60;2.88;;;;;;;;;;6214891;23;20017;-87
2023/08/28 04:49:07;;;;;;;5.78;3.40;;;;;;;;;;6214549;23;20016;-88
2023/08/28 04:51:33;;;;;;;4.78;2.85;;;;;;;;;;6189948;23;20072;-88
2023/08/28 04:53:59;;;;;;;4.32;3.05;;;;;;;;;;6188979;23;20029;-88
2023/08/28 04:56:25;;;;;;;5.03;3.00;;;;;;;;;;6214940;23;20528;-87
2023/08/28 04:58:54;;;;;;;6.00;3.25;;;;;;;;;;6189456;23;20019;-88
2023/08/28 05:01:20;;;;;;;4.38;2.85;;;;;;;;;;6214193;23;20052;-88
2023/08/28 05:03:46;;;;;;;4.13;2.90;;;;;;;;;;6214172;23;20025;-87
2023/08/28 05:06:12;;;;;;;3.83;2.92;;;;;;;;;;6214602;23;20448;-87
2023/08/28 05:08:38;;;;;;;4.43;3.25;;;;;;;;;;6189319;23;20028;-87
2023/08/28 05:11:04;;;;;;;6.53;3.35;;;;;;;;;;6214647;23;20451;-87
2023/08/28 05:13:31;;;;;;;5.28;3.60;;;;;;;;;;6190494;23;20336;-87
2023/08/28 05:15:57;;;;;;;3.70;2.95;;;;;;;;;;6189447;23;20017;-87
2023/08/28 05:18:23;;;;;;;4.70;3.08;;;;;;;;;;6189432;23;20023;-87
2023/08/28 05:20:49;;;;;;;4.13;2.88;;;;;;;;;;6188515;23;20107;-87
2023/08/28 05:23:25;;;;;;;4.88;3.00;;;;;;;;;;6189330;23;20009;-88
2023/08/28 05:25:57;;;;;;;4.95;3.40;;;;;;;;;;6222220;23;20325;-87
2023/08/28 05:28:23;;;;;;;5.47;3.22;;;;;;;;;;6223586;23;20021;-87
2023/08/28 05:30:51;;;;;;;6.22;3.10;;;;;;;;;;6210438;23;20066;-87
2023/08/28 05:33:18;;;;;;;7.20;3.50;;;;;;;;;;6189546;23;20012;-87
2023/08/28 05:35:44;;;;;;;5.05;3.10;;;;;;;;;;6189523;23;20016;-88
2023/08/28 05:38:12;;;;;;;4.63;3.17;;;;;;;;;;6188583;23;20016;-88
2023/08/28 05:40:41;;;;;;;4.65;3.05;;;;;;;;;;6216071;23;20032;-85
2023/08/28 05:43:07;;;;;;;5.75;3.28;;;;;;;;;;6192605;23;20052;-87
2023/08/28 05:45:33;;;;;;;4.43;3.13;;;;;;;;;;6194487;23;20068;-86
2023/08/28 05:48:02;;;;;;;4.07;3.20;;;;;;;;;;6192863;23;20031;-87
2023/08/28 05:50:31;;;;;;;6.82;3.50;;;;;;;;;;6216188;23;20020;-87
2023/08/28 05:52:57;;;;;;;6.22;3.22;;;;;;;;;;6190904;23;20023;-87
2023/08/28 05:55:23;;;;;;;5.05;3.40;;;;;;;;;;6216298;23;20013;-86
2023/08/28 05:57:50;;;;;;;4.18;3.20;;;;;;;;;;6190950;23;20022;-87
2023/08/28 06:00:16;;;;;;;5.80;3.40;;;;;;;;;;6216173;23;20038;-87
2023/08/28 06:02:42;;;;;;;5.63;3.25;;;;;;;;;;6216078;23;20024;-86
2023/08/28 06:05:11;;;;;;;6.65;3.10;;;;;;;;;;6216558;23;20083;-87
2023/08/28 06:07:37;;;;;;;4.30;3.25;;;;;;;;;;6191369;23;20147;-88
2023/08/28 06:10:07;;;;;;;7.00;3.20;;;;;;;;;;6216422;23;20027;-86
2023/08/28 06:12:34;;;;;;;5.07;3.50;;;;;;;;;;6190887;23;20021;-86
2023/08/28 06:15:02;;;;;;;5.97;3.90;;;;;;;;;;6216883;23;20012;-87
2023/08/28 06:17:31;;;;;;;3.97;3.05;;;;;;;;;;6217048;23;20067;-86
2023/08/28 06:20:00;;;;;;;4.47;3.40;;;;;;;;;;6216682;23;20032;-86
2023/08/28 06:22:27;;;;;;;5.70;3.45;;;;;;;;;;6192052;23;20056;-86
2023/08/28 06:24:56;;;;;;;5.03;3.75;;;;;;;;;;6192781;23;20440;-86
2023/08/28 06:27:22;;;;;;;5.35;3.22;;;;;;;;;;6191376;23;20021;-86
2023/08/28 06:29:51;;;;;;;3.95;3.10;;;;;;;;;;6193413;23;20028;-86
2023/08/28 06:32:20;;;;;;;4.18;2.90;;;;;;;;;;6219850;23;20046;-86
2023/08/28 06:34:50;;;;;;;3.42;3.00;;;;;;;;;;6191846;23;20083;-87
2023/08/28 06:37:24;;;;;;;3.83;3.30;;;;;;;;;;6192188;23;20023;-86
2023/08/28 06:39:55;;;;;;;3.90;2.95;;;;;;;;;;6192540;23;20116;-86
2023/08/28 06:42:24;;;;;;;4.35;3.10;;;;;;;;;;6191143;23;20016;-86
2023/08/28 06:44:50;;;;;;;5.70;3.33;;;;;;;;;;6216511;23;20090;-86
2023/08/28 06:47:16;;;;;;;4.57;3.10;;;;;;;;;;6190870;23;20023;-85
2023/08/28 06:49:42;;;;;;;4.43;3.38;;;;;;;;;;6214813;23;20067;-89
2023/08/28 06:52:09;;;;;;;3.72;2.90;;;;;;;;;;6216878;23;20119;-87
2023/08/28 06:54:35;;;;;;;6.07;2.90;;;;;;;;;;6215704;23;20087;-86
2023/08/28 06:57:01;;;;;;;5.22;2.80;;;;;;;;;;6191035;23;20013;-87
2023/08/28 06:59:27;;;;;;;4.47;2.75;;;;;;;;;;6190406;23;20013;-88
2023/08/28 07:01:53;;;;;;;3.50;2.70;;;;;;;;;;6190883;23;20348;-86
2023/08/28 07:04:19;;;;;;;5.97;2.90;;;;;;;;;;6190378;23;20016;-88
2023/08/28 07:06:46;;;;;;;7.60;2.80;;;;;;;;;;6190931;23;20023;-86
2023/08/28 07:09:12;;;;;;;4.47;2.60;;;;;;;;;;6191496;23;20310;-88
2023/08/28 07:11:38;;;;;;;5.43;3.15;;;;;;;;;;6191067;23;20440;-88
2023/08/28 07:14:32;;;;;;;;;;;;;;;;;;;;;
2023/08/28 07:17:09;;;;;;;5.20;2.10;;;;;;;;;;6217746;23;20013;-88
2023/08/28 07:19:38;;;;;;;2.92;1.70;;;;;;;;;;6191500;23;20498;-87
2023/08/28 07:22:04;;;;;;;3.83;1.92;;;;;;;;;;6190255;23;20397;-88
2023/08/28 07:24:33;;;;;;;3.95;1.80;;;;;;;;;;6216286;23;20087;-86
2023/08/28 07:27:02;;;;;;;2.03;1.50;;;;;;;;;;6221730;23;20051;-88
2023/08/28 07:29:28;;;;;;;3.10;1.65;;;;;;;;;;6204042;23;20095;-87
2023/08/28 07:31:55;;;;;;;2.88;1.65;;;;;;;;;;6225310;23;20017;-87
2023/08/28 07:34:21;;;;;;;4.22;1.67;;;;;;;;;;6216927;23;20091;-88
2023/08/28 07:36:47;;;;;;;2.88;1.80;;;;;;;;;;6207976;23;20020;-87
2023/08/28 07:39:13;;;;;;;5.13;2.58;;;;;;;;;;6190586;23;20012;-88
2023/08/28 07:41:39;;;;;;;3.75;1.70;;;;;;;;;;6214879;23;20043;-87
2023/08/28 07:44:06;;;;;;;3.78;1.90;;;;;;;;;;6190619;23;20440;-86
2023/08/28 07:46:32;;;;;;;2.95;1.70;;;;;;;;;;6215460;23;20328;-88
2023/08/28 07:48:58;;;;;;;3.60;1.70;;;;;;;;;;6216509;23;20020;-87
2023/08/28 07:51:24;;;;;;;3.40;1.65;;;;;;;;;;6214602;23;20016;-88
2023/08/28 07:53:50;;;;;;;2.92;1.80;;;;;;;;;;6214951;23;20017;-87
2023/08/28 07:56:17;;;;;;;3.08;1.60;;;;;;;;;;6189708;23;20016;-86
2023/08/28 07:58:43;;;;;;;3.83;1.60;;;;;;;;;;6189413;23;20013;-87
2023/08/28 08:01:14;;;;;;;2.85;1.58;;;;;;;;;;6190357;23;20012;-86
2023/08/28 08:03:46;;;;;;;2.33;1.75;;;;;;;;;;6215373;23;20016;-86
2023/08/28 08:06:15;;;;;;;9.23;1.70;;;;;;;;;;6189620;23;20096;-86
2023/08/28 08:08:44;;;;;;;2.20;1.35;;;;;;;;;;6188821;23;20027;-87
2023/08/28 08:11:10;;;;;;;2.80;1.67;;;;;;;;;;6189211;23;20097;-87
2023/08/28 08:13:38;;;;;;;3.97;2.00;;;;;;;;;;6189266;23;20027;-87
2023/08/28 08:16:05;;;;;;;2.10;1.60;;;;;;;;;;6213449;23;20017;-87
2023/08/28 08:18:31;;;;;;;4.40;1.70;;;;;;;;;;6189020;23;20100;-87
2023/08/28 08:21:00;;;;;;;3.25;1.90;;;;;;;;;;6188656;23;20038;-87
2023/08/28 08:23:26;;;;;;;2.30;1.98;;;;;;;;;;6215882;23;20016;-87
2023/08/28 08:25:54;;;;;;;3.35;2.10;;;;;;;;;;6189095;23;20455;-86
2023/08/28 08:28:20;;;;;;;4.18;1.90;;;;;;;;;;6189036;23;20021;-86
2023/08/28 08:30:47;;;;;;;2.05;1.80;;;;;;;;;;6208016;23;20012;-86
2023/08/28 08:33:17;;;;;;;3.00;2.03;;;;;;;;;;6214563;23;20019;-86
2023/08/28 08:35:43;;;;;;;2.22;1.40;;;;;;;;;;6214158;23;20393;-86
2023/08/28 08:38:09;;;;;;;4.50;1.90;;;;;;;;;;6213893;23;20020;-87
2023/08/28 08:40:40;;;;;;;3.47;1.70;;;;;;;;;;6214090;23;20441;-87
2023/08/28 08:43:06;;;;;;;3.05;1.80;;;;;;;;;;6189223;23;20020;-86
2023/08/28 08:45:33;;;;;;;3.10;2.10;;;;;;;;;;6189032;23;20092;-87
2023/08/28 08:48:01;;;;;;;3.47;1.60;;;;;;;;;;6189297;23;20043;-88
2023/08/28 08:50:28;;;;;;;3.28;1.70;;;;;;;;;;6216135;23;20035;-87
2023/08/28 08:52:56;;;;;;;2.20;1.98;;;;;;;;;;6214049;23;20020;-86
2023/08/28 08:55:30;;;;;;;4.38;1.70;;;;;;;;;;6214130;23;20088;-87
2023/08/28 08:57:58;;;;;;;3.50;1.80;;;;;;;;;;6213868;23;20486;-86
2023/08/28 09:00:25;;;;;;;2.80;1.58;;;;;;;;;;6214002;23;20024;-85
2023/08/28 09:02:52;;;;;;;2.08;1.50;;;;;;;;;;6214674;23;20479;-86
2023/08/28 09:05:20;;;;;;;6.18;1.85;;;;;;;;;;6188489;23;20024;-86
2023/08/28 09:07:47;;;;;;;1.83;1.52;;;;;;;;;;6213886;23;20515;-86
2023/08/28 09:10:14;;;;;;;2.63;1.63;;;;;;;;;;6188539;23;20024;-84
2023/08/28 09:12:46;;;;;;;2.33;1.60;;;;;;;;;;6189372;23;20092;-86
2023/08/28 09:15:12;;;;;;;3.92;1.92;;;;;;;;;;6213661;23;20036;-86
2023/08/28 09:17:42;;;;;;;5.13;2.00;;;;;;;;;;6216026;23;20016;-85
2023/08/28 09:20:13;;;;;;;2.58;1.80;;;;;;;;;;6217772;23;20082;-86
2023/08/28 09:22:44;;;;;;;3.85;1.80;;;;;;;;;;6190806;23;20012;-86
2023/08/28 09:25:10;;;;;;;2.67;1.70;;;;;;;;;;6216999;23;20017;-87
2023/08/28 09:27:42;;;;;;;2.00;1.45;;;;;;;;;;6215762;23;20056;-86
2023/08/28 09:30:08;;;;;;;2.15;1.40;;;;;;;;;;6216547;23;20017;-85
2023/08/28 09:32:35;;;;;;;2.65;1.45;;;;;;;;;;6204197;23;20032;-87
2023/08/28 09:35:01;;;;;;;2.92;1.65;;;;;;;;;;6196910;23;20019;-88
2023/08/28 09:37:28;;;;;;;2.63;1.70;;;;;;;;;;6199948;23;20017;-88
2023/08/28 09:39:57;;;;;;;1.85;1.30;;;;;;;;;;6193495;23;20021;-88
2023/08/28 09:42:24;;;;;;;5.53;1.80;;;;;;;;;;6217261;23;20016;-87
2023/08/28 09:44:51;;;;;;;2.50;1.45;;;;;;;;;;6192072;23;20020;-87
2023/08/28 09:47:23;;;;;;;2.85;2.15;;;;;;;;;;6216303;23;20021;-86
2023/08/28 09:49:52;;;;;;;3.65;1.65;;;;;;;;;;6217200;23;20071;-88
2023/08/28 09:52:26;;;;;;;2.60;1.42;;;;;;;;;;6191239;23;20020;-88
2023/08/28 09:55:04;;;;;;;1.90;1.38;;;;;;;;;;6191288;23;20367;-89
2023/08/28 09:57:34;;;;;;;2.22;1.50;;;;;;;;;;6190718;23;20016;-89
2023/08/28 10:00:00;;;;;;;2.75;1.65;;;;;;;;;;6215957;23;20020;-89
2023/08/28 10:02:35;;;;;;;4.28;1.45;;;;;;;;;;6190970;23;20037;-89
2023/08/28 10:05:05;;;;;;;2.88;1.67;;;;;;;;;;6216993;23;20016;-88
2023/08/28 10:07:31;;;;;;;3.50;1.70;;;;;;;;;;6216079;23;20013;-89
2023/08/28 10:10:16;;;;;;;4.05;1.55;;;;;;;;;;6216148;23;20343;-90
2023/08/28 10:12:56;;;;;;;;;;;;;;;;;;;;;
2023/08/28 10:15:51;;;;;;;4.32;1.50;;;;;;;;;;6216130;23;20066;-90
2023/08/28 10:18:22;;;;;;;2.92;1.52;;;;;;;;;;6217764;23;20016;-88
2023/08/28 10:20:49;;;;;;;4.88;1.67;;;;;;;;;;6215564;23;20087;-88
2023/08/28 10:23:15;;;;;;;3.25;1.52;;;;;;;;;;6215324;23;20115;-88
2023/08/28 10:25:42;;;;;;;2.53;1.60;;;;;;;;;;6217328;23;20028;-89
2023/08/28 10:28:08;;;;;;;2.35;1.38;;;;;;;;;;6189780;23;20099;-88
2023/08/28 10:30:35;;;;;;;2.08;1.50;;;;;;;;;;6190723;23;20021;-88
2023/08/28 10:33:02;;;;;;;3.70;1.60;;;;;;;;;;6215574;23;20344;-90
2023/08/28 10:35:30;;;;;;;3.35;1.50;;;;;;;;;;6190544;23;20119;-89
2023/08/28 10:37:56;;;;;;;2.55;1.40;;;;;;;;;;6190600;23;20511;-88
2023/08/28 10:40:23;;;;;;;3.80;1.45;;;;;;;;;;6215777;23;20020;-87
2023/08/28 10:42:49;;;;;;;4.30;1.40;;;;;;;;;;6215604;23;20020;-89
2023/08/28 10:45:16;;;;;;;2.47;1.40;;;;;;;;;;6215322;23;20017;-90
2023/08/28 10:47:57;;;;;;;2.63;1.35;;;;;;;;;;6190478;23;20028;-90
2023/08/28 10:50:37;;;;;;;2.92;1.52;;;;;;;;;;6216650;23;20444;-91
2023/08/28 10:53:07;;;;;;;2.33;1.42;;;;;;;;;;6194145;23;20023;-90
2023/08/28 10:55:38;;;;;;;1.95;1.30;;;;;;;;;;6193847;23;20038;-89
2023/08/28 10:58:04;;;;;;;2.92;1.60;;;;;;;;;;6220940;23;20095;-90
2023/08/28 11:00:30;;;;;;;2.45;1.30;;;;;;;;;;6220616;23;20495;-90
2023/08/28 11:03:10;;;;;;;2.38;1.40;;;;;;;;;;6191036;23;20052;-88
2023/08/28 11:05:40;;;;;;;2.50;1.52;;;;;;;;;;6215268;23;20017;-86
2023/08/28 11:08:07;;;;;;;1.25;1.10;;;;;;;;;;6189753;23;20070;-86
2023/08/28 11:10:33;;;;;;;3.10;1.40;;;;;;;;;;6215161;23;20054;-88
2023/08/28 11:13:06;;;;;;;4.03;1.63;;;;;;;;;;6214242;23;20024;-89
2023/08/28 11:15:39;;;;;;;3.22;1.60;;;;;;;;;;6213586;23;20392;-89
2023/08/28 11:18:14;;;;;;;2.38;1.50;;;;;;;;;;6214318;23;20321;-89
2023/08/28 11:20:41;;;;;;;2.33;1.70;;;;;;;;;;6213971;23;20021;-88
2023/08/28 11:23:07;;;;;;;2.75;1.52;;;;;;;;;;6213538;23;20017;-88
2023/08/28 11:25:37;;;;;;;5.18;1.80;;;;;;;;;;6215419;23;20039;-88
2023/08/28 11:28:03;;;;;;;2.35;1.80;;;;;;;;;;6217125;23;20423;-88
2023/08/28 11:30:32;;;;;;;2.63;1.55;;;;;;;;;;6215163;23;20380;-88
2023/08/28 11:33:17;;;;;;;;;;;;;;;;;;;;;
2023/08/28 11:36:18;;;;;;;2.97;1.65;;;;;;;;;;6220334;23;20059;-89
2023/08/28 11:38:56;;;;;;;1.42;1.30;;;;;;;;;;6203913;23;20070;-89
2023/08/28 11:41:33;;;;;;;5.82;1.85;;;;;;;;;;6197262;23;20028;-88
2023/08/28 11:43:59;;;;;;;3.80;1.80;;;;;;;;;;6215887;23;20127;-88
2023/08/28 11:46:26;;;;;;;4.03;1.55;;;;;;;;;;6190745;23;20440;-88
2023/08/28 11:48:52;;;;;;;2.65;1.65;;;;;;;;;;6214675;23;20023;-88
2023/08/28 11:51:26;;;;;;;4.30;1.90;;;;;;;;;;6189523;23;20083;-88
2023/08/28 11:53:52;;;;;;;2.08;1.50;;;;;;;;;;6189535;23;20423;-88
2023/08/28 11:56:23;;;;;;;1.60;1.45;;;;;;;;;;6214903;23;20016;-89
2023/08/28 11:58:50;;;;;;;3.45;1.70;;;;;;;;;;6214516;23;20432;-89
2023/08/28 12:01:26;;;;;;;;;;;;;;;;;;;;;
2023/08/28 12:03:55;;;;;;;3.42;1.80;;;;;;;;;;6214959;23;20017;-88
2023/08/28 12:06:38;;;;;;;2.72;1.80;;;;;;;;;;6190499;23;20013;-89
2023/08/28 12:09:10;;;;;;;2.10;1.63;;;;;;;;;;6186656;23;20432;-89
2023/08/28 12:11:42;;;;;;;5.20;1.85;;;;;;;;;;6189948;23;20072;-87
2023/08/28 12:14:15;;;;;;;4.47;1.70;;;;;;;;;;6215548;23;20335;-88
2023/08/28 12:16:41;;;;;;;3.55;1.50;;;;;;;;;;6213863;23;20143;-88
2023/08/28 12:19:07;;;;;;;2.47;1.60;;;;;;;;;;6213796;23;20017;-88
2023/08/28 12:21:35;;;;;;;2.53;1.60;;;;;;;;;;6188378;23;20017;-88
2023/08/28 12:24:01;;;;;;;3.40;1.80;;;;;;;;;;6215384;23;20107;-87
2023/08/28 12:26:30;;;;;;;7.55;1.90;;;;;;;;;;6215723;23;20095;-88
2023/08/28 12:28:56;;;;;;;2.42;1.80;;;;;;;;;;6188877;23;20384;-87
2023/08/28 12:31:33;;;;;;;2.50;1.70;;;;;;;;;;6213846;23;20017;-88
2023/08/28 12:34:12;;;;;;;1.98;1.60;;;;;;;;;;6215537;23;20127;-88
2023/08/28 12:36:39;;;;;;;2.75;1.77;;;;;;;;;;6214327;23;20087;-88
2023/08/28 12:39:06;;;;;;;2.70;1.67;;;;;;;;;;6213729;23;20051;-87
2023/08/28 12:41:36;;;;;;;3.05;1.73;;;;;;;;;;6213791;23;20016;-88
2023/08/28 12:44:03;;;;;;;2.95;1.70;;;;;;;;;;6214006;23;20024;-87
2023/08/28 12:46:32;;;;;;;2.55;1.60;;;;;;;;;;6214134;23;20016;-88
2023/08/28 12:48:58;;;;;;;3.55;1.60;;;;;;;;;;6213805;23;20353;-87
2023/08/28 12:51:25;;;;;;;2.50;1.70;;;;;;;;;;6188261;23;20294;-88
2023/08/28 12:53:51;;;;;;;1.98;1.60;;;;;;;;;;6213593;23;20017;-88
2023/08/28 12:56:17;;;;;;;2.63;1.73;;;;;;;;;;6215277;23;20016;-87
2023/08/28 12:58:43;;;;;;;2.83;1.50;;;;;;;;;;6188861;23;20021;-88
2023/08/28 13:01:09;;;;;;;2.72;1.67;;;;;;;;;;6215391;23;20023;-87
2023/08/28 13:03:36;;;;;;;2.33;1.55;;;;;;;;;;6188123;23;20088;-88
2023/08/28 13:06:02;;;;;;;2.70;1.52;;;;;;;;;;6188514;23;20047;-88
2023/08/28 13:08:28;;;;;;;2.30;1.50;;;;;;;;;;6188356;23;20063;-88
2023/08/28 13:10:54;;;;;;;1.75;1.50;;;;;;;;;;6213696;23;20095;-88
2023/08/28 13:13:24;;;;;;;1.58;1.48;;;;;;;;;;6188286;23;20021;-88
2023/08/28 13:15:51;;;;;;;2.97;1.50;;;;;;;;;;6213381;23;20012;-88
2023/08/28 13:18:17;;;;;;;2.88;1.90;;;;;;;;;;6213435;23;20012;-87
2023/08/28 13:20:46;;;;;;;2.47;1.60;;;;;;;;;;6188359;23;20075;-87
2023/08/28 13:23:12;;;;;;;1.98;1.75;;;;;;;;;;6188388;23;20017;-87
2023/08/28 13:25:38;;;;;;;1.70;1.45;;;;;;;;;;6215366;23;20016;-87
2023/08/28 13:28:04;;;;;;;2.13;1.40;;;;;;;;;;6188836;23;20013;-89
2023/08/28 13:30:31;;;;;;;2.03;1.40;;;;;;;;;;6188861;23;20452;-89
2023/08/28 13:33:01;;;;;;;2.92;1.40;;;;;;;;;;6187960;23;20448;-89
2023/08/28 13:35:28;;;;;;;2.33;1.60;;;;;;;;;;6214445;23;20096;-89
2023/08/28 13:37:57;;;;;;;2.95;1.50;;;;;;;;;;6213639;23;20016;-87
2023/08/28 13:40:23;;;;;;;2.15;1.27;;;;;;;;;;6214668;23;20021;-88
2023/08/28 13:42:49;;;;;;;2.00;1.40;;;;;;;;;;6221385;23;20052;-88
2023/08/28 13:45:15;;;;;;;1.90;1.40;;;;;;;;;;6205541;23;20025;-89
2023/08/28 13:47:41;;;;;;;1.90;1.50;;;;;;;;;;6216763;23;20021;-88
2023/08/28 13:50:08;;;;;;;1.70;1.55;;;;;;;;;;6216342;23;20415;-89
2023/08/28 13:52:34;;;;;;;2.22;1.40;;;;;;;;;;6189551;23;20070;-89
2023/08/28 13:55:04;;;;;;;2.25;1.40;;;;;;;;;;6213948;23;20021;-88
2023/08/28 13:57:34;;;;;;;2.92;1.80;;;;;;;;;;6189413;23;20254;-89
2023/08/28 14:00:00;;;;;;;2.08;1.50;;;;;;;;;;6188610;23;20066;-86
2023/08/28 14:02:27;;;;;;;1.50;1.40;;;;;;;;;;6213597;23;20036;-86
2023/08/28 14:04:53;;;;;;;2.25;1.63;;;;;;;;;;6216675;23;20063;-86
2023/08/28 14:07:19;;;;;;;2.33;1.48;;;;;;;;;;6216945;23;20034;-87
2023/08/28 14:09:45;;;;;;;3.60;1.80;;;;;;;;;;6216949;23;20087;-86
2023/08/28 14:12:11;;;;;;;2.92;1.58;;;;;;;;;;6216516;23;20013;-87
2023/08/28 14:14:38;;;;;;;2.40;1.50;;;;;;;;;;6215735;23;20115;-87
2023/08/28 14:17:04;;;;;;;2.28;1.70;;;;;;;;;;6215336;23;20021;-87
2023/08/28 14:19:30;;;;;;;2.35;1.70;;;;;;;;;;6216925;23;20020;-88
2023/08/28 14:21:56;;;;;;;1.95;1.30;;;;;;;;;;6216590;23;20058;-88
2023/08/28 14:24:23;;;;;;;1.95;1.60;;;;;;;;;;6215306;23;20082;-87
2023/08/28 14:26:49;;;;;;;4.05;1.90;;;;;;;;;;6215314;23;20024;-87
2023/08/28 14:29:15;;;;;;;2.50;1.60;;;;;;;;;;6189849;23;20027;-88
2023/08/28 14:31:41;;;;;;;2.25;1.70;;;;;;;;;;6189829;23;20032;-87
2023/08/28 14:34:07;;;;;;;2.28;1.45;;;;;;;;;;6189869;23;20016;-87
2023/08/28 14:36:33;;;;;;;2.75;1.58;;;;;;;;;;6216263;23;20051;-87
2023/08/28 14:39:00;;;;;;;1.60;1.50;;;;;;;;;;6217133;23;20020;-86
2023/08/28 14:41:26;;;;;;;1.60;1.50;;;;;;;;;;6214875;23;20048;-86
2023/08/28 14:43:52;;;;;;;2.33;1.30;;;;;;;;;;6216904;23;20016;-85
2023/08/28 14:46:18;;;;;;;2.58;1.83;;;;;;;;;;6214535;23;20040;-86
2023/08/28 14:48:44;;;;;;;2.55;1.40;;;;;;;;;;6190049;23;20017;-85
2023/08/28 14:51:10;;;;;;;1.55;1.40;;;;;;;;;;6214809;23;20020;-85
2023/08/28 14:53:36;;;;;;;2.88;1.52;;;;;;;;;;6189434;23;20017;-85
2023/08/28 14:56:04;;;;;;;3.08;1.40;;;;;;;;;;6216507;23;20020;-85